Latest Coastal Weather Observations for Arlington Reef

IDQ60701

Issued at 2:02 pm EST Friday 29 July 2016 (issued every 10 minutes, with the page automatically refreshed every 10 minutes)

About coastal observations | Map of coastal stations | Coastal observations for QLD | Marine services | Other Formats
Station Details ID: 200879 Name: ARLINGTON REEF Lat: -16.72 Lon: 146.11 Height: 0.0 m
Data from the previous 72 hours. | See also: Recent months at Arlington Reef
Date/Time
EST
Temp
°C
Wind Pressure Rain since
9am
mm
Weather Cloud Vis
km
Sea
Height
m
Swell
Dir  Spd
kts
Gust
kts
hPa Trend Height
m
Period
s
Dir
29/02:00pm - S 27 33 1014.9 - - - - - - - - -
29/01:30pm - S 27 34 1015.3 - - - - - - - - -
29/01:00pm - S 27 32 1015.7 - - - - - - - - -
29/12:30pm - S 28 33 1016.1 - - - - - - - - -
29/12:00pm - S 28 33 1016.3 - - - - - - - - -
29/11:30am - S 27 32 1017.0 - - - - - - - - -
29/11:00am - S 27 31 1017.3 - - - - - - - - -
29/10:30am - SSE 27 31 1017.4 - - - - - - - - -
29/10:00am - SSE 27 32 1017.2 - - - - - - - - -
29/09:30am - SSE 28 33 1017.1 - - - - - - - - -
29/09:00am - SSE 26 32 1017.6 - - - - - - - - -
29/08:30am - SSE 26 31 1017.2 - - - - - - - - -
29/08:00am - SSE 25 30 1017.1 - - - - - - - - -
29/07:30am - SSE 25 30 1016.9 - - - - - - - - -
29/07:00am - SSE 25 30 1016.7 - - - - - - - - -
29/06:30am - SSE 22 27 1016.7 - - - - - - - - -
29/06:00am - SSE 24 28 1016.1 - - - - - - - - -
29/05:30am - SSE 25 30 1015.6 - - - - - - - - -
29/05:00am - SSE 24 28 1015.7 - - - - - - - - -
29/04:30am - SSE 24 28 1015.6 - - - - - - - - -
29/04:00am - SSE 24 29 1015.6 - - - - - - - - -
29/03:30am - SE 24 28 1015.9 - - - - - - - - -
29/03:00am - SSE 24 28 1016.0 - - - - - - - - -
29/02:30am - SSE 24 30 1016.0 - - - - - - - - -
29/02:00am - SSE 24 28 1016.4 - - - - - - - - -
29/01:30am - SSE 24 28 1016.7 - - - - - - - - -
29/01:00am - SE 24 29 1016.9 - - - - - - - - -
29/12:30am - SE 24 28 1017.2 - - - - - - - - -
29/12:00am - SE 25 30 1017.3 - - - - - - - - -
 
Date/Time
EST
Temp
°C
Wind Pressure Rain since
9am
mm
Weather Cloud Vis
km
Sea
Height
m
Swell
Dir  Spd
kts
Gust
kts
hPa Trend Height
m
Period
s
Dir
28/11:30pm - SSE 26 30 1017.3 - - - - - - - - -
28/11:00pm - SSE 26 30 1017.7 - - - - - - - - -
28/10:30pm - SSE 25 31 1017.8 - - - - - - - - -
28/10:00pm - SSE 27 33 1017.7 - - - - - - - - -
28/09:30pm - SSE 26 31 1017.7 - - - - - - - - -
28/09:00pm - SSE 26 30 1017.7 - - - - - - - - -
28/08:30pm - SSE 24 30 1017.6 - - - - - - - - -
28/08:00pm - SSE 25 30 1017.5 - - - - - - - - -
28/07:30pm - SSE 24 29 1017.4 - - - - - - - - -
28/07:00pm - SSE 25 29 1017.1 - - - - - - - - -
28/06:30pm - SSE 26 31 1016.9 - - - - - - - - -
28/06:00pm - SSE 27 32 1016.6 - - - - - - - - -
28/05:30pm - SSE 25 32 1016.5 - - - - - - - - -
28/05:00pm - SSE 26 33 1016.3 - - - - - - - - -
28/04:30pm - SSE 26 32 1016.3 - - - - - - - - -
28/04:00pm - SSE 27 35 1015.8 - - - - - - - - -
28/03:30pm - SSE 26 32 1015.8 - - - - - - - - -
28/03:00pm - SSE 27 32 1015.7 - - - - - - - - -
28/02:30pm - SSE 28 34 1015.8 - - - - - - - - -
28/02:00pm - SSE 27 31 1015.9 - - - - - - - - -
28/01:30pm - SSE 28 34 1016.1 - - - - - - - - -
28/01:00pm - SSE 28 34 1016.4 - - - - - - - - -
28/12:30pm - S 28 35 1016.8 - - - - - - - - -
28/12:00pm - SSE 28 32 1016.9 - - - - - - - - -
28/11:30am - SSE 28 35 1017.2 - - - - - - - - -
28/11:00am - SSE 29 33 1017.7 - - - - - - - - -
28/10:30am - SSE 29 35 1017.6 - - - - - - - - -
28/10:00am - SSE 28 32 1018.0 - - - - - - - - -
28/09:30am - SSE 28 34 1017.8 - - - - - - - - -
28/09:00am - SSE 28 33 1017.8 - - - - - - - - -
28/08:30am - SSE 27 33 1017.8 - - - - - - - - -
28/08:00am - SSE 25 32 1017.7 - - - - - - - - -
28/07:30am - SSE 27 33 1017.4 - - - - - - - - -
28/07:00am - SSE 27 32 1017.1 - - - - - - - - -
28/06:30am - SSE 28 33 1016.7 - - - - - - - - -
28/06:00am - SSE 28 33 1016.2 - - - - - - - - -
28/05:30am - SSE 27 33 1016.1 - - - - - - - - -
28/05:00am - SSE 28 33 1016.1 - - - - - - - - -
28/04:30am - SSE 24 29 1015.9 - - - - - - - - -
28/04:00am - SSE 25 31 1015.9 - - - - - - - - -
28/03:30am - SSE 24 29 1016.1 - - - - - - - - -
28/03:00am - SSE 24 28 1016.0 - - - - - - - - -
28/02:30am - SSE 19 23 1016.2 - - - - - - - - -
28/02:00am - S 20 24 1016.5 - - - - - - - - -
28/01:30am - S 19 23 1016.8 - - - - - - - - -
28/01:00am - SSE 18 22 1016.9 - - - - - - - - -
28/12:30am - S 20 22 1016.6 - - - - - - - - -
28/12:00am - S 21 23 1016.8 - - - - - - - - -
 
Date/Time
EST
Temp
°C
Wind Pressure Rain since
9am
mm
Weather Cloud Vis
km
Sea
Height
m
Swell
Dir  Spd
kts
Gust
kts
hPa Trend Height
m
Period
s
Dir
27/11:30pm - S 18 20 1017.1 - - - - - - - - -
27/11:00pm - S 17 19 1017.3 - - - - - - - - -
27/10:30pm - S 18 22 1017.2 - - - - - - - - -
27/10:00pm - S 20 23 1017.0 - - - - - - - - -
27/09:30pm - S 19 25 1017.2 - - - - - - - - -
27/09:00pm - S 19 23 1017.3 - - - - - - - - -
27/08:30pm - S 20 23 1017.1 - - - - - - - - -
27/08:00pm - S 21 25 1016.6 - - - - - - - - -
27/07:30pm - S 20 23 1016.4 - - - - - - - - -
27/07:00pm - S 22 26 1015.6 - - - - - - - - -
27/06:30pm - S 21 25 1015.6 - - - - - - - - -
27/06:00pm - SSE 22 25 1015.4 - - - - - - - - -
27/05:30pm - SSE 22 26 1015.2 - - - - - - - - -
27/05:00pm - S 23 26 1014.7 - - - - - - - - -
27/04:30pm - S 23 26 1014.6 - - - - - - - - -
27/04:00pm - S 23 27 1014.1 - - - - - - - - -
27/03:30pm - S 24 29 1014.0 - - - - - - - - -
27/03:00pm - S 24 29 1014.1 - - - - - - - - -
27/02:30pm - S 25 28 1014.2 - - - - - - - - -
27/02:00pm - S 25 30 1014.1 - - - - - - - - -
27/01:30pm - S 23 27 1014.4 - - - - - - - - -
27/01:00pm - SSE 22 26 1014.6 - - - - - - - - -
27/12:30pm - SSE 23 27 1015.0 - - - - - - - - -
27/12:00pm - SSE 21 25 1015.5 - - - - - - - - -
27/11:37am - SSE 20 32 1015.4 - - - - - - - - -
27/11:30am - S 19 24 1015.8 - - - - - - - - -
27/11:00am - S 18 23 1016.1 - - - - - - - - -
27/10:30am - SSE 18 20 1016.4 - - - - - - - - -
27/10:00am - SE 21 25 1016.4 - - - - - - - - -
27/09:30am - SSE 23 30 1016.5 - - - - - - - - -
27/09:00am - SE 24 29 1016.3 - - - - - - - - -
27/08:30am - SSE 23 27 1015.8 - - - - - - - - -
27/08:00am - S 21 25 1015.5 - - - - - - - - -
27/07:30am - S 21 25 1015.2 - - - - - - - - -
27/07:00am - S 19 23 1015.0 - - - - - - - - -
27/06:30am - S 21 25 1014.5 - - - - - - - - -
27/06:00am - S 20 24 1014.2 - - - - - - - - -
27/05:30am - S 20 24 1014.1 - - - - - - - - -
27/05:00am - S 20 23 1014.0 - - - - - - - - -
27/04:30am - S 19 22 1014.1 - - - - - - - - -
27/04:00am - S 20 23 1014.1 - - - - - - - - -
27/03:30am - S 17 20 1014.2 - - - - - - - - -
27/03:00am - S 18 20 1014.5 - - - - - - - - -
27/02:30am - S 17 21 1014.4 - - - - - - - - -
27/02:00am - S 17 20 1014.6 - - - - - - - - -
27/01:30am - S 14 18 1015.0 - - - - - - - - -
27/01:00am - S 13 15 1015.3 - - - - - - - - -
27/12:30am - S 15 17 1015.3 - - - - - - - - -
27/12:00am - SSE 14 16 1015.5 - - - - - - - - -
 
Date/Time
EST
Temp
°C
Wind Pressure Rain since
9am
mm
Weather Cloud Vis
km
Sea
Height
m
Swell
Dir  Spd
kts
Gust
kts
hPa Trend Height
m
Period
s
Dir
26/11:30pm - SSE 14 16 1015.5 - - - - - - - - -
26/11:00pm - S 15 18 1015.5 - - - - - - - - -
26/10:30pm - S 17 20 1015.6 - - - - - - - - -
26/10:00pm - SSE 13 18 1015.7 - - - - - - - - -
26/09:30pm - S 16 19 1015.5 - - - - - - - - -
26/09:00pm - S 17 19 1015.4 - - - - - - - - -
26/08:30pm - S 17 20 1015.1 - - - - - - - - -
26/08:00pm - SSE 12 16 1015.1 - - - - - - - - -
26/07:30pm - SE 15 17 1014.8 - - - - - - - - -
26/07:00pm - SE 13 16 1014.6 - - - - - - - - -
26/06:30pm - SE 14 16 1014.2 - - - - - - - - -
26/06:00pm - SE 13 14 1014.1 - - - - - - - - -
26/05:30pm - SE 13 15 1013.7 - - - - - - - - -
26/05:00pm - SE 12 16 1013.6 - - - - - - - - -
26/04:30pm - SE 12 14 1013.3 - - - - - - - - -
26/04:00pm - SE 12 15 1013.2 - - - - - - - - -
26/03:30pm - SE 12 15 1013.3 - - - - - - - - -
26/03:00pm - SE 13 15 1013.5 - - - - - - - - -
26/02:30pm - SE 13 14 1013.6 - - - - - - - - -

Other Formats:

Comma delimited format used in spreadsheet applications
http://www.bom.gov.au/fwo/IDQ60701/IDQ60701.94284.axf

JavaScript Object Notation format (JSON) in row-major order
http://www.bom.gov.au/fwo/IDQ60701/IDQ60701.94284.json